createdAt,value
2022-08-20T00:01:09.228Z,28.13
2022-08-20T00:05:56.674Z,28.01
2022-08-20T00:08:24.029Z,28.01
2022-08-20T00:13:15.237Z,27.92
2022-08-20T00:15:45.452Z,27.89
2022-08-20T00:18:12.726Z,27.89
2022-08-20T00:20:46.197Z,27.85
2022-08-20T00:23:13.662Z,27.83
2022-08-20T00:25:41.332Z,27.81
2022-08-20T00:28:08.448Z,27.77
2022-08-20T00:30:36.820Z,27.76
2022-08-20T00:33:07.217Z,27.75
2022-08-20T00:35:36.702Z,27.74
2022-08-20T00:38:04.145Z,27.71
2022-08-20T00:40:37.292Z,27.71
2022-08-20T00:43:08.407Z,27.70
2022-08-20T00:45:35.719Z,27.70
2022-08-20T00:48:05.371Z,27.68
2022-08-20T00:50:37.645Z,27.60
2022-08-20T00:53:07.671Z,27.56
2022-08-20T00:55:35.604Z,27.62
2022-08-20T00:58:09.622Z,27.61
2022-08-20T01:00:40.653Z,27.60
2022-08-20T01:03:09.938Z,27.57
2022-08-20T01:05:38.669Z,27.55
2022-08-20T01:08:06.058Z,27.54
2022-08-20T01:10:40.993Z,27.51
2022-08-20T01:13:11.415Z,27.49
2022-08-20T01:15:43.242Z,27.47
2022-08-20T01:18:15.921Z,27.46
2022-08-20T01:21:04.452Z,27.44
2022-08-20T01:23:39.592Z,27.42
2022-08-20T01:26:17.683Z,27.40
2022-08-20T01:28:47.448Z,27.39
2022-08-20T01:31:17.530Z,27.38
2022-08-20T01:36:06.030Z,27.36
2022-08-20T01:38:33.281Z,27.35
2022-08-20T01:41:18.936Z,27.36
2022-08-20T01:43:57.225Z,27.34
2022-08-20T01:46:29.068Z,27.35
2022-08-20T01:48:58.204Z,27.32
2022-08-20T01:51:29.423Z,27.33
2022-08-20T01:53:59.849Z,27.35
2022-08-20T01:56:30.915Z,27.35
2022-08-20T01:59:00.548Z,27.36
2022-08-20T02:01:46.250Z,27.34
2022-08-20T02:04:15.576Z,27.33
2022-08-20T02:06:56.860Z,27.30
2022-08-20T02:09:34.292Z,27.27
2022-08-20T02:12:02.943Z,27.27
2022-08-20T02:14:30.318Z,27.28
2022-08-20T02:16:58.458Z,27.27
2022-08-20T02:19:37.092Z,27.28
2022-08-20T02:22:27.712Z,27.26
2022-08-20T02:24:54.337Z,27.24
2022-08-20T02:27:23.661Z,27.19
2022-08-20T02:29:52.395Z,26.92
2022-08-20T02:34:45.196Z,27.03
2022-08-20T02:37:14.984Z,27.07
2022-08-20T02:39:41.730Z,27.06
2022-08-20T02:42:09.334Z,27.05
2022-08-20T02:44:36.003Z,27.04
2022-08-20T02:47:02.580Z,27.02
2022-08-20T02:49:30.162Z,27.01
2022-08-20T02:51:56.888Z,27.01
2022-08-20T02:54:23.508Z,27.00
2022-08-20T02:56:51.992Z,27.00
2022-08-20T02:59:19.006Z,26.99
2022-08-20T03:01:48.393Z,26.99
2022-08-20T03:04:26.697Z,26.96
2022-08-20T03:06:53.292Z,26.95
2022-08-20T03:09:19.860Z,26.93
2022-08-20T03:11:46.413Z,26.93
2022-08-20T03:14:13.067Z,26.91
2022-08-20T03:16:39.664Z,26.93
2022-08-20T03:19:06.360Z,26.91
2022-08-20T03:21:33.027Z,26.90
2022-08-20T03:23:59.641Z,26.82
2022-08-20T03:26:26.305Z,26.84
2022-08-20T03:28:52.928Z,26.88
2022-08-20T03:31:20.759Z,26.88
2022-08-20T03:33:52.601Z,26.87
2022-08-20T03:36:27.785Z,26.87
2022-08-20T03:39:04.541Z,26.87
2022-08-20T03:41:32.205Z,26.87
2022-08-20T03:43:59.095Z,26.88
2022-08-20T03:46:25.780Z,26.64
2022-08-20T03:48:59.842Z,26.86
2022-08-20T03:51:30.681Z,26.87
2022-08-20T03:53:58.005Z,26.78
2022-08-20T03:56:25.060Z,26.83
2022-08-20T03:58:52.348Z,26.83
2022-08-20T04:01:45.117Z,26.80
2022-08-20T04:04:05.682Z,26.80
2022-08-20T04:06:38.965Z,26.79
2022-08-20T04:09:07.129Z,26.76
2022-08-20T04:11:37.497Z,26.75
2022-08-20T04:14:04.072Z,26.73
2022-08-20T04:16:33.581Z,26.71
2022-08-20T04:19:02.218Z,26.68
2022-08-20T04:21:33.570Z,26.68
2022-08-20T04:24:02.377Z,26.66
2022-08-20T04:26:29.875Z,26.59
2022-08-20T04:28:56.781Z,26.63
2022-08-20T04:31:33.236Z,26.61
2022-08-20T04:34:02.186Z,26.62
2022-08-20T04:36:28.843Z,26.61
2022-08-20T04:38:55.504Z,26.60
2022-08-20T04:41:24.301Z,26.59
2022-08-20T04:43:55.829Z,26.58
2022-08-20T04:46:25.674Z,26.59
2022-08-20T04:48:52.925Z,26.57
2022-08-20T04:51:23.277Z,26.57
2022-08-20T04:53:53.775Z,26.57
2022-08-20T04:56:28.662Z,26.57
2022-08-20T04:58:59.044Z,26.57
2022-08-20T05:01:26.384Z,26.56
2022-08-20T05:03:54.840Z,26.54
2022-08-20T05:06:24.694Z,26.53
2022-08-20T05:08:51.922Z,26.54
2022-08-20T05:13:50.375Z,26.55
2022-08-20T05:16:18.081Z,26.50
2022-08-20T05:18:45.588Z,26.59
2022-08-20T05:21:20.093Z,26.61
2022-08-20T05:23:47.175Z,26.65
2022-08-20T05:26:16.038Z,26.68
2022-08-20T05:28:50.656Z,26.71
2022-08-20T05:31:32.559Z,26.76
2022-08-20T05:34:09.711Z,26.79
2022-08-20T05:36:50.003Z,26.83
2022-08-20T05:39:19.158Z,26.87
2022-08-20T05:41:45.720Z,26.93
2022-08-20T05:44:15.490Z,26.98
2022-08-20T05:46:44.001Z,27.00
2022-08-20T05:49:13.461Z,27.04
2022-08-20T05:51:40.527Z,27.06
2022-08-20T05:54:27.657Z,27.10
2022-08-20T05:56:54.783Z,27.13
2022-08-20T05:59:24.198Z,27.18
2022-08-20T06:01:52.007Z,27.22
2022-08-20T06:04:24.874Z,27.26
2022-08-20T06:06:53.931Z,27.29
2022-08-20T06:09:31.142Z,27.33
2022-08-20T06:12:00.753Z,27.26
2022-08-20T06:14:27.392Z,27.32
2022-08-20T06:16:57.707Z,27.29
2022-08-20T06:19:27.249Z,27.30
2022-08-20T06:21:59.275Z,27.29
2022-08-20T06:24:26.964Z,27.30
2022-08-20T06:26:58.764Z,27.30
2022-08-20T06:29:25.770Z,27.23
2022-08-20T06:31:52.345Z,27.32
2022-08-20T06:34:19.244Z,27.31
2022-08-20T06:36:46.782Z,27.35
2022-08-20T06:39:14.911Z,27.37
2022-08-20T06:41:42.063Z,27.40
2022-08-20T06:44:08.727Z,27.42
2022-08-20T06:46:36.252Z,27.43
2022-08-20T06:49:04.841Z,27.43
2022-08-20T06:51:31.564Z,27.45
2022-08-20T06:56:17.077Z,27.52
2022-08-20T06:58:43.970Z,27.54
2022-08-20T07:01:12.364Z,27.55
2022-08-20T07:03:42.269Z,27.58
2022-08-20T07:06:21.955Z,27.56
2022-08-20T07:08:48.599Z,27.60
2022-08-20T07:11:15.208Z,27.62
2022-08-20T07:16:07.876Z,27.65
2022-08-20T07:18:34.504Z,27.68
2022-08-20T07:21:01.068Z,27.71
2022-08-20T07:23:33.180Z,27.72
2022-08-20T07:26:00.428Z,27.72
2022-08-20T07:28:32.479Z,27.65
2022-08-20T07:31:20.469Z,27.70
2022-08-20T07:33:50.262Z,27.73
2022-08-20T07:36:18.201Z,27.75
2022-08-20T07:38:50.918Z,27.80
2022-08-20T07:41:18.758Z,27.83
2022-08-20T07:43:46.756Z,27.86
2022-08-20T07:46:17.755Z,27.90
2022-08-20T07:48:49.766Z,27.94
2022-08-20T07:51:19.269Z,27.97
2022-08-20T07:53:47.611Z,27.99
2022-08-20T07:56:17.567Z,28.02
2022-08-20T07:58:49.923Z,28.04
2022-08-20T08:01:26.185Z,28.05
2022-08-20T08:03:53.193Z,28.07
2022-08-20T08:06:28.923Z,28.07
2022-08-20T08:09:11.718Z,28.07
2022-08-20T08:11:47.185Z,28.10
2022-08-20T08:14:16.599Z,28.09
2022-08-20T08:16:45.296Z,28.09
2022-08-20T08:19:14.696Z,28.11
2022-08-20T08:21:41.889Z,28.14
2022-08-20T08:24:08.740Z,28.16
2022-08-20T08:28:48.172Z,28.20
2022-08-20T08:31:15.120Z,28.21
2022-08-20T08:33:42.488Z,28.17
2022-08-20T08:36:12.941Z,28.23
2022-08-20T08:38:44.804Z,28.21
2022-08-20T08:41:18.579Z,28.23
2022-08-20T08:43:53.194Z,28.26
2022-08-20T08:46:26.054Z,28.28
2022-08-20T08:48:56.240Z,28.22
2022-08-20T08:51:37.203Z,28.31
2022-08-20T08:54:07.171Z,28.32
2022-08-20T08:56:35.448Z,28.34
2022-08-20T08:59:05.943Z,28.37
2022-08-20T09:01:55.499Z,28.40
2022-08-20T09:04:31.653Z,28.43
2022-08-20T09:06:59.329Z,28.44
2022-08-20T09:09:32.864Z,28.45
2022-08-20T09:12:15.200Z,28.46
2022-08-20T09:14:41.787Z,28.46
2022-08-20T09:17:08.423Z,28.49
2022-08-20T09:19:35.519Z,28.48
2022-08-20T09:22:13.550Z,28.49
2022-08-20T09:24:41.520Z,28.50
2022-08-20T09:27:08.503Z,28.50
2022-08-20T09:29:35.648Z,28.50
2022-08-20T09:32:10.288Z,28.50
2022-08-20T09:34:48.452Z,28.51
2022-08-20T09:37:15.710Z,28.53
2022-08-20T09:39:42.988Z,28.54
2022-08-20T09:42:19.521Z,28.56
2022-08-20T09:44:46.460Z,28.58
2022-08-20T09:47:13.192Z,28.60
2022-08-20T09:49:40.501Z,28.62
2022-08-20T09:52:09.666Z,28.64
2022-08-20T09:54:39.679Z,28.65
2022-08-20T09:57:14.649Z,28.67
2022-08-20T09:59:41.617Z,28.67
2022-08-20T10:02:08.260Z,28.70
2022-08-20T10:04:34.876Z,28.71
2022-08-20T10:07:01.480Z,28.30
2022-08-20T10:09:27.995Z,28.72
2022-08-20T10:11:54.592Z,28.75
2022-08-20T10:14:21.112Z,28.76
2022-08-20T10:16:55.841Z,28.78
2022-08-20T10:19:26.312Z,28.80
2022-08-20T10:21:53.950Z,28.81
2022-08-20T10:24:21.984Z,28.81
2022-08-20T10:26:49.351Z,28.82
2022-08-20T10:29:16.756Z,28.81
2022-08-20T10:31:43.333Z,28.84
2022-08-20T10:34:09.949Z,28.86
2022-08-20T10:36:36.489Z,28.86
2022-08-20T10:39:03.303Z,28.88
2022-08-20T10:41:36.091Z,28.89
2022-08-20T10:44:05.597Z,28.90
2022-08-20T10:46:32.152Z,28.90
2022-08-20T10:48:58.696Z,28.92
2022-08-20T10:51:32.259Z,28.92
2022-08-20T10:53:59.255Z,28.93
2022-08-20T10:56:25.798Z,28.65
2022-08-20T10:58:52.453Z,28.92
2022-08-20T11:01:32.636Z,28.92
2022-08-20T11:04:00.883Z,28.91
2022-08-20T11:06:27.456Z,28.90
2022-08-20T11:08:54.040Z,28.89
2022-08-20T11:11:23.766Z,28.90
2022-08-20T11:13:50.299Z,28.88
2022-08-20T11:16:16.867Z,28.89
2022-08-20T11:18:47.313Z,28.89
2022-08-20T11:21:15.196Z,28.89
2022-08-20T11:23:41.732Z,28.89
2022-08-20T11:26:08.907Z,28.89
2022-08-20T11:28:35.475Z,28.90
2022-08-20T11:31:02.136Z,28.89
2022-08-20T11:33:29.350Z,28.90
2022-08-20T11:35:56.228Z,28.90
2022-08-20T11:38:22.967Z,28.90
2022-08-20T11:40:49.738Z,28.92
2022-08-20T11:43:17.489Z,28.89
2022-08-20T11:45:50.209Z,28.90
2022-08-20T11:48:17.860Z,28.87
2022-08-20T11:50:45.181Z,28.87
2022-08-20T11:53:11.811Z,28.86
2022-08-20T11:55:38.687Z,28.92
2022-08-20T11:58:05.673Z,28.93
2022-08-20T12:00:34.122Z,28.92
2022-08-20T12:03:02.517Z,28.92
2022-08-20T12:05:32.327Z,28.92
2022-08-20T12:08:01.515Z,28.92
2022-08-20T12:10:29.052Z,28.93
2022-08-20T12:12:56.283Z,28.93
2022-08-20T12:15:24.118Z,28.93
2022-08-20T12:17:50.795Z,28.94
2022-08-20T12:20:17.585Z,28.93
2022-08-20T12:22:44.744Z,28.38
2022-08-20T12:25:12.544Z,28.94
2022-08-20T12:27:40.335Z,28.94
2022-08-20T12:30:12.999Z,28.95
2022-08-20T12:32:40.679Z,28.95
2022-08-20T12:35:08.964Z,28.94
2022-08-20T12:37:35.968Z,28.95
2022-08-20T12:40:07.452Z,28.95
2022-08-20T12:42:34.376Z,28.96
2022-08-20T12:45:01.612Z,28.96
2022-08-20T12:50:03.004Z,28.95
2022-08-20T12:52:32.252Z,28.95
2022-08-20T12:54:59.907Z,28.88
2022-08-20T12:57:36.051Z,28.95
2022-08-20T13:00:28.361Z,28.96
2022-08-20T13:02:59.205Z,28.95
2022-08-20T13:05:26.219Z,28.96
2022-08-20T13:12:23.834Z,28.96
2022-08-20T13:14:50.469Z,28.96
2022-08-20T13:17:18.810Z,28.96
2022-08-20T13:22:14.400Z,28.97
2022-08-20T13:24:42.060Z,28.93
2022-08-20T13:27:11.412Z,28.97
2022-08-20T13:29:38.384Z,28.94
2022-08-20T13:32:05.781Z,28.89
2022-08-20T13:34:32.435Z,28.98
2022-08-20T13:39:25.393Z,28.97
2022-08-20T13:44:15.305Z,28.64
2022-08-20T13:46:42.083Z,28.97
2022-08-20T13:49:08.639Z,28.97
2022-08-20T13:51:35.192Z,28.94
2022-08-20T13:54:01.896Z,28.91
2022-08-20T13:56:28.509Z,28.89
2022-08-20T13:58:55.036Z,28.87
2022-08-20T14:01:21.834Z,28.83
2022-08-20T14:03:48.381Z,28.80
2022-08-20T14:06:15.127Z,28.79
2022-08-20T14:08:41.714Z,28.77
2022-08-20T14:11:08.311Z,28.75
2022-08-20T14:13:40.444Z,28.73
2022-08-20T14:18:34.519Z,28.72
2022-08-20T14:21:01.191Z,28.72
2022-08-20T14:23:29.328Z,28.70
2022-08-20T14:28:18.080Z,28.62
2022-08-20T14:33:12.711Z,28.51
2022-08-20T14:35:40.098Z,28.46
2022-08-20T14:38:07.689Z,28.42
2022-08-20T14:40:35.536Z,28.39
2022-08-20T14:43:02.234Z,28.36
2022-08-20T14:45:28.875Z,28.35
2022-08-20T14:47:57.663Z,28.33
2022-08-20T14:50:31.567Z,28.32
2022-08-20T14:52:59.573Z,28.29
2022-08-20T14:55:29.956Z,28.27
2022-08-20T14:57:57.439Z,28.27
2022-08-20T15:00:27.967Z,28.29
2022-08-20T15:02:56.783Z,28.32
2022-08-20T15:05:23.870Z,28.35
2022-08-20T15:07:54.138Z,28.33
2022-08-20T15:12:43.058Z,28.31
2022-08-20T15:17:35.593Z,28.35
2022-08-20T15:20:20.089Z,28.38
2022-08-20T15:22:48.490Z,28.37
2022-08-20T15:25:18.304Z,28.35
2022-08-20T15:27:45.310Z,28.32
2022-08-20T15:30:15.798Z,28.29
2022-08-20T15:32:42.505Z,28.31
2022-08-20T15:35:11.267Z,28.33
2022-08-20T15:37:43.776Z,28.35
2022-08-20T15:40:13.614Z,28.32
2022-08-20T15:45:06.403Z,28.37
2022-08-20T15:47:50.829Z,28.35
2022-08-20T15:50:36.060Z,28.37
2022-08-20T15:53:11.776Z,28.37
2022-08-20T15:55:44.083Z,28.37
2022-08-20T15:58:23.868Z,28.38
2022-08-20T16:01:24.555Z,28.39
2022-08-20T16:03:57.689Z,28.41
2022-08-20T16:06:30.937Z,28.42
2022-08-20T16:09:03.659Z,28.45
2022-08-20T16:11:42.955Z,28.42
2022-08-20T16:14:21.628Z,28.42
2022-08-20T16:17:05.135Z,28.43
2022-08-20T16:19:59.610Z,28.42
2022-08-20T16:22:29.912Z,28.41
2022-08-20T16:24:56.884Z,28.39
2022-08-20T16:27:53.019Z,28.38
2022-08-20T16:30:47.780Z,28.36
2022-08-20T16:33:37.278Z,28.34
2022-08-20T16:36:17.824Z,28.33
2022-08-20T16:39:02.467Z,28.31
2022-08-20T16:41:38.635Z,28.29
2022-08-20T16:44:09.880Z,28.25
2022-08-20T16:46:44.221Z,28.20
2022-08-20T16:49:13.779Z,28.18
2022-08-20T16:51:49.438Z,28.18
2022-08-20T16:54:29.275Z,28.21
2022-08-20T16:57:04.161Z,28.23
2022-08-20T16:59:32.499Z,28.24
2022-08-20T17:04:22.244Z,28.27
2022-08-20T17:06:51.532Z,28.28
2022-08-20T17:09:37.476Z,28.28
2022-08-20T17:12:14.465Z,28.29
2022-08-20T17:14:57.971Z,28.27
2022-08-20T17:17:38.153Z,28.25
2022-08-20T17:20:20.551Z,28.23
2022-08-20T17:23:14.709Z,28.23
2022-08-20T17:25:41.498Z,28.23
2022-08-20T17:28:23.072Z,28.11
2022-08-20T17:33:26.188Z,28.16
2022-08-20T17:35:59.545Z,28.17
2022-08-20T17:38:28.329Z,28.17
2022-08-20T17:41:00.647Z,28.14
2022-08-20T17:43:43.408Z,28.12
2022-08-20T17:46:16.195Z,28.02
2022-08-20T17:51:22.539Z,27.93
2022-08-20T17:53:59.991Z,27.86
2022-08-20T17:56:31.384Z,27.79
2022-08-20T17:59:10.267Z,27.73
2022-08-20T18:01:37.402Z,27.66
2022-08-20T18:04:04.136Z,27.57
2022-08-20T18:07:15.593Z,27.45
2022-08-20T18:09:52.849Z,27.45
2022-08-20T18:12:34.042Z,27.39
2022-08-20T18:15:19.299Z,27.26
2022-08-20T18:17:55.300Z,27.29
2022-08-20T18:20:44.079Z,27.28
2022-08-20T18:23:16.243Z,27.29
2022-08-20T18:26:05.459Z,27.27
2022-08-20T18:28:43.637Z,27.27
2022-08-20T18:31:24.725Z,27.23
2022-08-20T18:33:52.248Z,27.24
2022-08-20T18:36:18.739Z,27.23
2022-08-20T18:39:06.193Z,27.25
2022-08-20T18:41:40.080Z,27.29
2022-08-20T18:44:12.545Z,27.36
2022-08-20T18:46:53.456Z,27.38
2022-08-20T18:49:38.453Z,27.39
2022-08-20T18:52:14.065Z,27.36
2022-08-20T18:54:48.944Z,27.33
2022-08-20T18:57:52.432Z,27.35
2022-08-20T19:00:21.419Z,27.33
2022-08-20T19:03:17.229Z,27.31
2022-08-20T19:05:46.808Z,27.27
2022-08-20T19:08:25.308Z,27.23
2022-08-20T19:11:10.991Z,27.13
2022-08-20T19:14:00.789Z,27.06
2022-08-20T19:16:43.840Z,26.98
2022-08-20T19:19:18.693Z,26.91
2022-08-20T19:21:45.576Z,26.87
2022-08-20T19:24:29.881Z,26.81
2022-08-20T19:27:00.311Z,26.81
2022-08-20T19:29:31.224Z,26.80
2022-08-20T19:32:06.224Z,26.87
2022-08-20T19:37:09.085Z,26.89
2022-08-20T19:39:49.234Z,26.92
2022-08-20T19:42:31.367Z,26.96
2022-08-20T19:44:59.817Z,26.99
2022-08-20T19:47:44.013Z,27.02
2022-08-20T19:50:27.574Z,27.01
2022-08-20T19:53:27.482Z,26.96
2022-08-20T19:56:02.101Z,26.91
2022-08-20T19:58:30.183Z,26.85
2022-08-20T20:00:57.363Z,26.75
2022-08-20T20:03:27.233Z,26.73
2022-08-20T20:05:58.772Z,26.70
2022-08-20T20:08:41.666Z,26.68
2022-08-20T20:11:10.225Z,26.67
2022-08-20T20:13:39.631Z,26.65
2022-08-20T20:16:07.702Z,26.64
2022-08-20T20:18:39.289Z,26.38
2022-08-20T20:21:24.533Z,26.69
2022-08-20T20:23:58.261Z,26.45
2022-08-20T20:26:31.986Z,26.75
2022-08-20T20:29:05.268Z,26.70
2022-08-20T20:31:39.852Z,26.79
2022-08-20T20:34:12.969Z,26.80
2022-08-20T20:36:45.865Z,26.80
2022-08-20T20:39:29.496Z,26.79
2022-08-20T20:42:00.662Z,26.78
2022-08-20T20:44:37.289Z,26.78
2022-08-20T20:47:08.156Z,26.77
2022-08-20T20:49:50.024Z,26.74
2022-08-20T20:52:29.193Z,26.78
2022-08-20T20:55:24.273Z,26.77
2022-08-20T20:57:52.146Z,26.79
2022-08-20T21:00:21.487Z,26.76
2022-08-20T21:02:48.494Z,26.75
2022-08-20T21:07:50.608Z,26.77
2022-08-20T21:10:19.967Z,26.77
2022-08-20T21:12:51.926Z,26.76
2022-08-20T21:15:21.048Z,26.77
2022-08-20T21:17:47.937Z,26.78
2022-08-20T21:20:14.847Z,26.79
2022-08-20T21:22:41.658Z,26.69
2022-08-20T21:25:08.493Z,26.75
2022-08-20T21:29:56.998Z,26.58
2022-08-20T21:32:23.892Z,26.70
2022-08-20T21:34:53.188Z,26.69
2022-08-20T21:37:19.849Z,26.65
2022-08-20T21:39:47.444Z,26.66
2022-08-20T21:42:22.229Z,26.55
2022-08-20T21:44:55.551Z,26.60
2022-08-20T21:47:22.079Z,26.60
2022-08-20T21:49:48.758Z,26.61
2022-08-20T21:52:15.457Z,26.62
2022-08-20T21:54:42.062Z,26.60
2022-08-20T21:57:14.571Z,26.56
2022-08-20T21:59:42.455Z,26.50
2022-08-20T22:02:09.373Z,26.45
2022-08-20T22:04:36.007Z,26.41
2022-08-20T22:07:03.518Z,26.41
2022-08-20T22:09:32.773Z,26.39
2022-08-20T22:12:02.904Z,26.34
2022-08-20T22:14:30.345Z,26.33
2022-08-20T22:16:57.051Z,26.29
2022-08-20T22:19:23.947Z,26.28
2022-08-20T22:21:53.060Z,26.28
2022-08-20T22:26:36.944Z,26.30
2022-08-20T22:29:05.339Z,26.28
2022-08-20T22:31:34.354Z,26.26
2022-08-20T22:34:01.315Z,26.25
2022-08-20T22:36:28.279Z,26.22
2022-08-20T22:38:55.680Z,26.19
2022-08-20T22:41:23.121Z,26.18
2022-08-20T22:43:56.698Z,26.19
2022-08-20T22:46:30.262Z,26.18
2022-08-20T22:48:57.140Z,26.21
2022-08-20T22:51:28.819Z,26.28
2022-08-20T22:53:57.181Z,26.32
2022-08-20T22:56:23.787Z,26.34
2022-08-20T22:58:51.048Z,26.34
2022-08-20T23:01:19.131Z,26.34
2022-08-20T23:03:46.368Z,26.32
2022-08-20T23:06:13.569Z,26.33
2022-08-20T23:08:41.974Z,26.35
2022-08-20T23:11:09.241Z,26.40
2022-08-20T23:13:36.019Z,26.43
2022-08-20T23:16:03.516Z,26.45
2022-08-20T23:18:32.769Z,26.47
2022-08-20T23:23:26.755Z,26.49
2022-08-20T23:25:54.591Z,26.44
2022-08-20T23:28:23.996Z,26.47
2022-08-20T23:30:51.469Z,26.42
2022-08-20T23:33:18.453Z,26.46
2022-08-20T23:35:46.147Z,26.38
2022-08-20T23:38:13.640Z,26.37
2022-08-20T23:40:41.212Z,26.32
2022-08-20T23:43:08.628Z,26.28
2022-08-20T23:45:39.765Z,26.22
2022-08-20T23:48:07.807Z,26.14
2022-08-20T23:50:34.688Z,26.10
2022-08-20T23:53:01.411Z,26.07
2022-08-20T23:55:28.002Z,26.02
2022-08-20T23:57:54.796Z,25.98
